Flight Track Log - Related Links

Times and Time Zones

All times are in EDT time to prevent confusion due to time zone crossing. See the C-FTNM flight status page for this flight to view local times or setup timezone preferences in your user account.

Time Position Orientation Groundspeed Altitude Reporting Facility
EDT Latitude Longitude Course Direction KTS MPH feet Rate Location/Type
Tue 10:08:19 AM 49.6833 -108.5500 270° West 160 184 9,900  Level Edmonton Center
Tue 10:09:19 AM 49.6833 -108.6333 270° West 170 196 11,300 1,450 Climbing Edmonton Center
Tue 10:10:19 AM 49.6833 -108.7167 270° West 160 184 12,800 1,550 Climbing Edmonton Center
Tue 10:11:19 AM 49.7000 -108.7667 297° West 160 184 14,400 1,500 Climbing Edmonton Center
Tue 10:12:19 AM 49.7000 -108.8500 270° West 150 173 15,800 1,450 Climbing Edmonton Center
Tue 10:13:19 AM 49.7167 -108.9000 297° West 160 184 17,300 1,500 Climbing Edmonton Center
Tue 10:14:19 AM 49.7167 -108.9833 270° West 160 184 18,800 1,500 Climbing Edmonton Center
Tue 10:15:19 AM 49.7333 -109.0333 297° West 160 184 20,300 1,500 Climbing Edmonton Center
Tue 10:16:19 AM 49.7500 -109.1167 287° West 160 184 21,800 850 Climbing Edmonton Center
Tue 10:17:19 AM 49.7333 -109.1833 249° West 170 196 22,000 100 Climbing Edmonton Center
Tue 10:18:19 AM 49.7500 -109.2667 287° West 200 230 22,000  Level Edmonton Center
Tue 10:19:19 AM 49.7667 -109.3667 285° West 220 253 22,000  Level Edmonton Center
Tue 10:20:19 AM 49.7833 -109.4500 287° West 220 253 22,000  Level Edmonton Center
Tue 10:21:19 AM 49.8000 -109.5500 285° West 220 253 22,000  Level Edmonton Center
Tue 10:22:19 AM 49.8000 -109.6333 270° West 220 253 22,000  Level Edmonton Center
Tue 10:23:19 AM 49.8167 -109.7500 283° West 220 253 22,000 -50 Level Edmonton Center
Tue 10:24:19 AM 49.8333 -109.8167 291° West 220 253 21,900 -550 Descending Edmonton Center
Tue 10:25:19 AM 49.8500 -109.9333 283° West 220 253 20,900 -900 Descending Edmonton Center
Tue 10:26:19 AM 49.8500 -110.0167 270° West 220 253 20,100 -850 Descending Edmonton Center
Tue 10:27:19 AM 49.8667 -110.1167 285° West 220 253 19,200 -900 Descending Edmonton Center
Tue 10:28:19 AM 49.8833 -110.2000 287° West 210 242 18,300 -600 Descending Edmonton Center
Tue 10:29:19 AM 49.8833 -110.2667 270° West 200 230 18,000 -150 Descending Edmonton Center
Tue 10:30:19 AM 49.8833 -110.3833 270° West 200 230 18,000  Level Edmonton Center
Tue 10:31:19 AM 49.9000 -110.4667 287° West 210 242 18,000  Level Edmonton Center
Tue 10:32:19 AM 49.9167 -110.5667 285° West 210 242 18,000  Level Edmonton Center
Tue 10:33:19 AM 49.9333 -110.6500 287° West 210 242 18,000  Level Edmonton Center
Tue 10:34:19 AM 49.9333 -110.7500 270° West 220 253 18,000  Level Edmonton Center
Tue 10:35:19 AM 49.9333 -110.8333 270° West 220 253 18,000  Level Edmonton Center
Tue 10:36:19 AM 49.9667 -110.9333 297° West 220 253 18,000  Level Edmonton Center
Tue 10:37:19 AM 49.9667 -111.0167 270° West 220 253 18,000  Level Edmonton Center
Tue 10:38:19 AM 50.0000 -111.1000 302° West 220 253 18,000  Level Edmonton Center
Tue 10:39:19 AM 50.0167 -111.2167 283° West 220 253 18,000  Level Edmonton Center
Tue 10:40:19 AM 50.0500 -111.3000 302° West 220 253 18,000  Level Edmonton Center
Tue 10:46:01 AM 50.1670 -111.7710 302° West 217 250 18,000  Level FlightAware ADS-B
Tue 10:46:43 AM 50.1840 -111.8580 287° West 217 250 18,000  Level FlightAware ADS-B
Tue 10:47:29 AM 50.1970 -111.9270 286° West 218 251 18,000  Level FlightAware ADS-B
Tue 10:48:19 AM 50.2120 -112.0020 287° West 218 251 18,000  Level FlightAware ADS-B
Tue 10:49:03 AM 50.2340 -112.0650 299° West 219 252 18,000 -200 Level FlightAware ADS-B
Tue 10:49:49 AM 50.2540 -112.1300 296° West 222 255 17,700 -625 Descending FlightAware ADS-B
Tue 10:50:39 AM 50.2750 -112.1940 297° West 219 252 17,000 -957 Descending FlightAware ADS-B
Tue 10:51:23 AM 50.2960 -112.2620 296° West 207 238 16,200 -1,213 Descending FlightAware ADS-B
Tue 10:52:08 AM 50.3160 -112.3240 297° West 205 236 15,200 -1,326 Descending FlightAware ADS-B
Tue 10:52:49 AM 50.3320 -112.3780 295° West 203 234 14,300 -1,333 Descending FlightAware ADS-B
Tue 10:53:29 AM 50.3490 -112.4330 296° West 204 235 13,400 -1,286 Descending FlightAware ADS-B
Tue 10:54:13 AM 50.3680 -112.4930 296° West 207 238 12,500 -1,214 Descending FlightAware ADS-B
Tue 10:54:53 AM 50.3850 -112.5470 296° West 208 239 11,700 -1,091 Descending FlightAware ADS-B
Tue 10:55:30 AM 50.3990 -112.5940 295° West 209 241 11,100 -472 Descending FlightAware ADS-B
Tue 10:56:22 AM 50.4100 -112.6310 295° West 204 235 11,000 -67 Descending FlightAware ADS-B
Tue 10:56:59 AM 50.4370 -112.7190 296° West 202 232 11,000  Level FlightAware ADS-B
Tue 10:57:38 AM 50.4530 -112.7720 295° West 209 241 11,000  Level FlightAware ADS-B
Tue 10:58:24 AM 50.4730 -112.8350 297° West 203 234 11,000  Level FlightAware ADS-B
Tue 10:59:03 AM 50.4890 -112.8880 295° West 196 226 11,000 -488 Level FlightAware ADS-B
Tue 10:59:50 AM 50.5070 -112.9470 296° West 209 241 10,300 -735 Descending FlightAware ADS-B
Tue 11:00:41 AM 50.5260 -113.0150 294° West 210 242 9,800 -940 Descending FlightAware ADS-B
Tue 11:01:13 AM 50.5420 -113.0610 299° West 193 222 9,000 -774 Descending FlightAware ADS-B
Tue 11:01:43 AM 50.5530 -113.1010 293° West 197 227 9,000  Level FlightAware ADS-B
Tue 11:01:55 AM 50.5580 -113.1140 301° West 199 229 9,000  Level FlightAware ADS-B
Tue 11:02:18 AM 50.5670 -113.1450 295° West 202 232 9,000  Level FlightAware ADS-B
Tue 11:02:48 AM 50.5790 -113.1860 295° West 202 232 9,000  Level FlightAware ADS-B
Tue 11:03:08 AM 50.5870 -113.2140 294° West 202 232 9,000  Level FlightAware ADS-B
Tue 11:03:28 AM 50.5950 -113.2400 296° West 202 232 9,000  Level FlightAware ADS-B
Tue 11:04:03 AM 50.6100 -113.2880 296° West 202 232 9,000  Level FlightAware ADS-B
Tue 11:04:29 AM 50.6200 -113.3210 296° West 198 228 9,000 -107 Level FlightAware ADS-B
Tue 11:04:59 AM 50.6350 -113.3570 303° West 199 229 8,900 -735 Descending FlightAware ADS-B
Tue 11:05:18 AM 50.6500 -113.3760 321° Northwest 206 237 8,400 -1,469 Descending FlightAware ADS-B
Tue 11:05:48 AM 50.6740 -113.4020 326° Northwest 214 246 7,700 -1,300 Descending FlightAware ADS-B
Tue 11:06:18 AM 50.6980 -113.4290 325° Northwest 195 224 7,100 -933 Descending FlightAware ADS-B
Tue 11:06:33 AM 50.7090 -113.4410 325° Northwest 184 212 7,000 -133 Descending FlightAware ADS-B
Tue 11:07:03 AM 50.7300 -113.4640 325° Northwest 180 207 7,000  Level FlightAware ADS-B
Tue 11:07:18 AM 50.7410 -113.4760 325° Northwest 184 212 7,000  Level FlightAware ADS-B
Tue 11:07:43 AM 50.7580 -113.4950 325° Northwest 176 203 7,000  Level FlightAware ADS-B
Tue 11:08:13 AM 50.7780 -113.5180 324° Northwest 180 207 7,000  Level FlightAware ADS-B
Tue 11:08:39 AM 50.7970 -113.5380 326° Northwest 197 227 7,000  Level FlightAware ADS-B
Tue 11:08:48 AM 50.8040 -113.5470 321° Northwest 199 229 7,000  Level FlightAware ADS-B
Tue 11:09:08 AM 50.8200 -113.5640 326° Northwest 203 234 7,000  Level FlightAware ADS-B
Tue 11:09:35 AM 50.8350 -113.5800 326° Northwest 198 228 7,000  Level FlightAware ADS-B
Tue 11:09:50 AM 50.8500 -113.5980 323° Northwest 198 228 7,000  Level FlightAware ADS-B
Tue 11:10:14 AM 50.8700 -113.6200 325° Northwest 197 227 7,000  Level FlightAware ADS-B
Tue 11:10:43 AM 50.8930 -113.6450 326° Northwest 199 229 7,000  Level FlightAware ADS-B
Tue 11:11:44 AM 50.9300 -113.6800 329° Northwest 176 203 7,000  Level FlightAware ADS-B
Tue 11:12:14 AM 50.9500 -113.6500 43° Northeast 157 181 7,000  Level FlightAware ADS-B
Tue 11:12:39 AM 50.9470 -113.6220 100° East 153 176 7,000  Level FlightAware ADS-B
Tue 11:13:09 AM 50.9360 -113.5950 123° Southeast 150 173 7,000  Level FlightAware ADS-B
Tue 11:13:19 AM 50.9290 -113.5920 165° South 161 185 7,000  Level FlightAware ADS-B
Tue 11:13:54 AM 50.9090 -113.6180 219° Southwest 172 198 7,000  Level FlightAware ADS-B
Tue 11:14:19 AM 50.9080 -113.6490 267° West 174 200 7,000 -109 Level FlightAware ADS-B
Tue 11:14:49 AM 50.9170 -113.6850 292° West 176 203 6,900 -214 Descending FlightAware ADS-B
Tue 11:15:15 AM 50.9280 -113.7140 301° West 172 198 6,800 -554 Descending FlightAware ADS-B
Tue 11:15:54 AM 50.9380 -113.7600 289° West 174 200 6,300 -1,029 Descending FlightAware ADS-B
Tue 11:16:25 AM 50.9460 -113.7980 288° West 173 199 5,600 -800 Descending FlightAware ADS-B
Tue 11:16:54 AM 50.9530 -113.8320 288° West 164 189 5,500 -154 Descending FlightAware ADS-B
Tue 11:17:04 AM 50.9550 -113.8440 285° West 163 188 5,500  Level FlightAware ADS-B
Tue 11:17:35 AM 50.9610 -113.8820 284° West 179 206 5,500  Level FlightAware ADS-B
Tue 11:18:04 AM 50.9680 -113.9190 287° West 176 203 5,500  Level FlightAware ADS-B
Tue 11:18:29 AM 50.9740 -113.9500 287° West 170 196 5,500  Level FlightAware ADS-B
Tue 11:18:59 AM 50.9890 -113.9780 310° West 162 186 5,500  Level FlightAware ADS-B
Tue 11:19:29 AM 51.0070 -114.0020 320° Northwest 166 191 5,500  Level FlightAware ADS-B
Tue 11:19:44 AM 51.0160 -114.0140 320° Northwest 165 190 5,500  Level FlightAware ADS-B
Tue 11:20:05 AM 51.0270 -114.0300 318° Northwest 160 184 5,500  Level FlightAware ADS-B
Tue 11:20:34 AM 51.0370 -114.0600 298° West 154 177 5,500  Level FlightAware ADS-B
Tue 11:21:05 AM 51.0440 -114.0790 300° West 152 175 5,500  Level FlightAware ADS-B
Tue 11:21:20 AM 51.0540 -114.1030 304° West 153 176 5,500  Level FlightAware ADS-B
Tue 11:21:49 AM 51.0650 -114.1320 301° West 155 178 5,500  Level FlightAware ADS-B
Tue 11:22:19 AM 51.0770 -114.1610 303° West 159 183 5,500  Level FlightAware ADS-B
Tue 11:22:44 AM 51.0860 -114.1860 300° West 158 182 5,500 -109 Level FlightAware ADS-B
Tue 11:23:14 AM 51.0970 -114.2150 301° West 137 158 5,400 -214 Descending FlightAware ADS-B
Tue 11:23:40 AM 51.1020 -114.2390 288° West 131 151 5,300 -300 Descending FlightAware ADS-B
Tue 11:23:54 AM 51.1040 -114.2530 283° West 130 150 5,200 -462 Descending FlightAware ADS-B
Tue 11:24:19 AM 51.1050 -114.2770 274° West 127 146 5,000 -536 Descending FlightAware ADS-B
Tue 11:24:50 AM 51.1050 -114.3040 270° West 127 146 4,700 -621 Descending FlightAware ADS-B
Tue 11:25:17 AM 51.1050 -114.3250 270° West 126 145 4,400 -667 Descending FlightAware ADS-B
Tue 11:33:00 AM 51.1000 -114.3667 155° Southeast  Level FlightAware Approximate
Tue 11:34:00 AM 51.1031 -114.3744 155° Southeast  Level Estimated
Tue 11:35:00 AM 51.1000 -114.3667 155° Southeast  Level FlightAware Approximate

Login

Don't have an account? Register now (free) for customized features, flight alerts, and more!